Time;durP1;ratioP1;P1;durP2;ratioP2;P2;SDS_P1;SDS_P2;PMS_P1;PMS_P2;Temp;Humidity;BMP_temperature;BMP_pressure;BME280_temperature;BME280_humidity;BME280_pressure;Samples;Min_cycle;Max_cycle;Signal;HPM_P1;HPM_P2
2022/05/31 00:01:58;;;;;;;8.50;5.40;;;;;;;;;;5092982;28;20136;-80
2022/05/31 00:04:24;;;;;;;10.77;5.78;;;;;;;;;;5106951;28;20068;-79
2022/05/31 00:06:51;;;;;;;8.32;5.50;;;;;;;;;;5112018;28;20099;-80
2022/05/31 00:09:17;;;;;;;8.60;5.53;;;;;;;;;;5096259;28;20051;-81
2022/05/31 00:11:44;;;;;;;9.82;5.35;;;;;;;;;;5103320;28;21970;-80
2022/05/31 00:14:11;;;;;;;7.95;5.00;;;;;;;;;;5093552;28;20050;-79
2022/05/31 00:16:37;;;;;;;8.30;4.93;;;;;;;;;;5098150;27;20139;-81
2022/05/31 00:19:04;;;;;;;8.65;5.20;;;;;;;;;;5092099;28;20048;-79
2022/05/31 00:21:40;;;;;;;8.32;5.13;;;;;;;;;;5097993;28;20197;-78
2022/05/31 00:24:07;;;;;;;7.88;4.93;;;;;;;;;;5092165;28;20048;-79
2022/05/31 00:26:36;;;;;;;7.72;5.25;;;;;;;;;;5104242;28;20064;-79
2022/05/31 00:29:02;;;;;;;6.90;4.45;;;;;;;;;;5100090;28;20056;-81
2022/05/31 00:31:29;;;;;;;7.78;5.20;;;;;;;;;;5099494;28;20095;-79
2022/05/31 00:33:55;;;;;;;7.70;4.63;;;;;;;;;;5100325;28;20090;-81
2022/05/31 00:36:22;;;;;;;7.45;5.03;;;;;;;;;;5095965;28;20373;-80
2022/05/31 00:38:49;;;;;;;10.07;5.35;;;;;;;;;;5094613;28;20095;-78
2022/05/31 00:41:25;;;;;;;10.00;5.10;;;;;;;;;;5110357;28;20056;-79
2022/05/31 00:43:53;;;;;;;11.32;5.47;;;;;;;;;;5094449;28;20070;-81
2022/05/31 00:46:21;;;;;;;8.05;4.93;;;;;;;;;;5084223;28;20084;-78
2022/05/31 00:48:50;;;;;;;7.63;4.93;;;;;;;;;;5089056;28;20064;-79
2022/05/31 00:51:18;;;;;;;8.05;4.70;;;;;;;;;;5082824;28;20077;-80
2022/05/31 00:53:46;;;;;;;8.43;4.68;;;;;;;;;;5098194;28;20156;-82
2022/05/31 00:56:16;;;;;;;6.32;4.40;;;;;;;;;;5100202;28;20052;-80
2022/05/31 00:58:45;;;;;;;7.10;4.47;;;;;;;;;;5091752;28;20109;-80
2022/05/31 01:01:13;;;;;;;7.15;4.28;;;;;;;;;;5097171;27;20499;-79
2022/05/31 01:03:41;;;;;;;10.35;4.65;;;;;;;;;;5103145;28;20055;-79
2022/05/31 01:06:10;;;;;;;7.38;4.80;;;;;;;;;;5097136;28;20052;-80
2022/05/31 01:08:37;;;;;;;7.20;4.97;;;;;;;;;;5089843;28;20060;-79
2022/05/31 01:11:04;;;;;;;8.32;5.10;;;;;;;;;;5098142;28;20186;-80
2022/05/31 01:13:30;;;;;;;7.90;4.55;;;;;;;;;;5102324;28;20104;-79
2022/05/31 01:16:06;;;;;;;8.23;5.45;;;;;;;;;;5109000;28;20104;-79
2022/05/31 01:18:33;;;;;;;10.32;4.55;;;;;;;;;;5101863;28;20101;-79
2022/05/31 01:21:00;;;;;;;8.65;5.00;;;;;;;;;;5095620;28;20063;-79
2022/05/31 01:23:27;;;;;;;7.40;4.32;;;;;;;;;;5097742;28;20082;-80
2022/05/31 01:25:58;;;;;;;7.85;4.80;;;;;;;;;;5087976;28;20060;-79
2022/05/31 01:28:31;;;;;;;8.20;5.00;;;;;;;;;;5098711;28;20064;-79
2022/05/31 01:31:16;;;;;;;7.97;4.53;;;;;;;;;;5099095;27;20302;-81
2022/05/31 01:33:50;;;;;;;6.65;4.32;;;;;;;;;;5098521;28;20145;-81
2022/05/31 01:36:19;;;;;;;7.53;4.65;;;;;;;;;;5094630;28;20624;-80
2022/05/31 01:39:06;;;;;;;8.20;4.72;;;;;;;;;;5098009;28;20408;-78
2022/05/31 01:41:36;;;;;;;8.60;4.32;;;;;;;;;;5103099;28;20082;-80
2022/05/31 01:44:05;;;;;;;7.47;4.30;;;;;;;;;;5097106;28;20054;-81
2022/05/31 01:46:33;;;;;;;9.38;5.05;;;;;;;;;;5098926;28;20052;-80
2022/05/31 01:49:01;;;;;;;9.48;4.55;;;;;;;;;;5088780;28;20087;-79
2022/05/31 01:51:28;;;;;;;8.25;4.40;;;;;;;;;;5095253;28;20619;-80
2022/05/31 01:53:54;;;;;;;8.48;4.25;;;;;;;;;;5089459;28;20067;-80
2022/05/31 01:56:22;;;;;;;7.78;4.40;;;;;;;;;;5091818;28;20051;-79
2022/05/31 01:58:50;;;;;;;8.48;4.25;;;;;;;;;;5097593;27;20052;-80
2022/05/31 02:01:16;;;;;;;7.70;4.68;;;;;;;;;;5095844;28;20590;-80
2022/05/31 02:03:44;;;;;;;7.15;4.53;;;;;;;;;;5093882;28;20061;-80
2022/05/31 02:06:28;;;;;;;6.88;4.20;;;;;;;;;;5088475;28;20107;-80
2022/05/31 02:08:54;;;;;;;10.80;4.55;;;;;;;;;;5104417;28;20601;-79
2022/05/31 02:11:21;;;;;;;7.63;4.70;;;;;;;;;;5087690;28;20057;-80
2022/05/31 02:13:48;;;;;;;8.30;4.63;;;;;;;;;;5087434;28;20100;-82
2022/05/31 02:16:14;;;;;;;9.10;5.07;;;;;;;;;;5099553;28;20115;-78
2022/05/31 02:21:26;;;;;;;7.90;5.13;;;;;;;;;;5095324;28;20053;-80
2022/05/31 02:23:52;;;;;;;8.45;4.78;;;;;;;;;;5091300;27;20426;-81
2022/05/31 02:26:18;;;;;;;7.80;4.47;;;;;;;;;;5099770;28;20131;-79
2022/05/31 02:28:45;;;;;;;6.82;4.57;;;;;;;;;;5093306;28;20056;-80
2022/05/31 02:31:12;;;;;;;8.00;4.97;;;;;;;;;;5100427;28;20147;-81
2022/05/31 02:33:38;;;;;;;8.40;4.97;;;;;;;;;;5096106;28;20114;-79
2022/05/31 02:36:05;;;;;;;7.38;4.60;;;;;;;;;;5099325;28;20143;-80
2022/05/31 02:38:31;;;;;;;8.73;4.60;;;;;;;;;;5097497;27;20102;-79
2022/05/31 02:40:58;;;;;;;9.82;5.20;;;;;;;;;;5086604;28;20062;-80
2022/05/31 02:43:24;;;;;;;8.55;4.70;;;;;;;;;;5095145;28;20430;-81
2022/05/31 02:45:51;;;;;;;7.35;4.75;;;;;;;;;;5097025;28;20052;-80
2022/05/31 02:48:17;;;;;;;7.18;4.53;;;;;;;;;;5090754;28;20106;-81
2022/05/31 02:50:43;;;;;;;7.75;5.00;;;;;;;;;;5089619;28;20052;-80
2022/05/31 02:53:10;;;;;;;8.70;4.95;;;;;;;;;;5090736;28;20858;-80
2022/05/31 02:55:36;;;;;;;8.70;5.20;;;;;;;;;;5081201;28;20058;-79
2022/05/31 02:58:02;;;;;;;8.82;5.45;;;;;;;;;;5090728;28;20143;-81
2022/05/31 03:00:29;;;;;;;8.85;5.40;;;;;;;;;;5088686;28;20344;-81
2022/05/31 03:02:55;;;;;;;11.30;5.60;;;;;;;;;;5087571;28;20058;-81
2022/05/31 03:05:21;;;;;;;11.05;5.40;;;;;;;;;;5094229;28;20087;-79
2022/05/31 03:07:48;;;;;;;9.15;4.93;;;;;;;;;;5089802;27;20139;-80
2022/05/31 03:10:14;;;;;;;8.27;5.47;;;;;;;;;;5094784;28;20532;-79
2022/05/31 03:12:41;;;;;;;7.63;4.35;;;;;;;;;;5086296;28;20087;-80
2022/05/31 03:15:08;;;;;;;8.80;4.80;;;;;;;;;;5100410;28;20062;-80
2022/05/31 03:17:39;;;;;;;8.25;4.80;;;;;;;;;;5098279;28;20127;-80
2022/05/31 03:20:10;;;;;;;7.43;4.53;;;;;;;;;;5093646;28;20335;-80
2022/05/31 03:22:47;;;;;;;7.13;4.50;;;;;;;;;;5094186;27;20055;-80
2022/05/31 03:25:16;;;;;;;7.28;4.72;;;;;;;;;;5095131;28;20079;-78
2022/05/31 03:27:43;;;;;;;8.80;4.82;;;;;;;;;;5097495;28;20067;-80
2022/05/31 03:30:10;;;;;;;7.43;4.68;;;;;;;;;;5092702;28;20113;-80
2022/05/31 03:32:36;;;;;;;7.53;5.10;;;;;;;;;;5093139;28;20492;-80
2022/05/31 03:35:04;;;;;;;9.98;5.20;;;;;;;;;;5092327;28;20189;-81
2022/05/31 03:37:30;;;;;;;12.63;5.38;;;;;;;;;;5107799;28;20040;-79
2022/05/31 03:39:56;;;;;;;11.60;4.78;;;;;;;;;;5113399;28;20071;-80
2022/05/31 03:42:22;;;;;;;8.95;5.35;;;;;;;;;;5106287;28;20138;-81
2022/05/31 03:44:51;;;;;;;7.47;4.82;;;;;;;;;;5096877;28;20131;-80
2022/05/31 03:47:17;;;;;;;8.65;4.95;;;;;;;;;;5107953;28;20112;-82
2022/05/31 03:49:43;;;;;;;8.93;5.13;;;;;;;;;;5092623;28;20052;-82
2022/05/31 03:52:10;;;;;;;7.57;4.78;;;;;;;;;;5112510;27;20094;-81
2022/05/31 03:54:37;;;;;;;10.10;5.22;;;;;;;;;;5102422;28;20123;-80
2022/05/31 03:57:07;;;;;;;11.05;5.25;;;;;;;;;;5100188;28;20072;-82
2022/05/31 03:59:34;;;;;;;9.35;5.15;;;;;;;;;;5099668;28;20070;-81
2022/05/31 04:02:00;;;;;;;10.05;5.00;;;;;;;;;;5099437;28;20090;-82
2022/05/31 04:04:27;;;;;;;10.52;5.45;;;;;;;;;;5095376;28;20052;-82
2022/05/31 04:06:53;;;;;;;7.78;4.95;;;;;;;;;;5108407;28;20099;-79
2022/05/31 04:09:19;;;;;;;7.60;4.90;;;;;;;;;;5096550;28;20064;-80
2022/05/31 04:11:46;;;;;;;10.15;5.25;;;;;;;;;;5099407;28;20036;-80
2022/05/31 04:14:12;;;;;;;9.35;5.25;;;;;;;;;;5093212;28;20543;-81
2022/05/31 04:16:38;;;;;;;8.60;5.05;;;;;;;;;;5096455;28;20548;-80
2022/05/31 04:19:05;;;;;;;7.32;4.95;;;;;;;;;;5095785;28;20059;-80
2022/05/31 04:21:31;;;;;;;9.23;5.20;;;;;;;;;;5100863;28;20515;-81
2022/05/31 04:23:58;;;;;;;11.00;5.57;;;;;;;;;;5102497;28;20064;-82
2022/05/31 04:26:25;;;;;;;7.70;4.78;;;;;;;;;;5099368;28;20056;-80
2022/05/31 04:28:52;;;;;;;9.60;4.88;;;;;;;;;;5095501;28;20049;-82
2022/05/31 04:31:19;;;;;;;9.23;5.10;;;;;;;;;;5100846;28;20088;-81
2022/05/31 04:33:45;;;;;;;11.25;5.28;;;;;;;;;;5096993;27;20951;-80
2022/05/31 04:36:13;;;;;;;10.75;5.45;;;;;;;;;;5111233;28;20077;-79
2022/05/31 04:38:39;;;;;;;8.98;5.35;;;;;;;;;;5103462;27;20134;-81
2022/05/31 04:41:06;;;;;;;7.90;5.00;;;;;;;;;;5114072;27;20052;-79
2022/05/31 04:43:33;;;;;;;8.30;5.20;;;;;;;;;;5107046;28;20051;-81
2022/05/31 04:46:13;;;;;;;10.90;5.22;;;;;;;;;;5096727;28;20119;-80
2022/05/31 04:48:40;;;;;;;9.35;5.20;;;;;;;;;;5100568;28;20056;-80
2022/05/31 04:51:06;;;;;;;7.68;5.22;;;;;;;;;;5105759;28;20143;-80
2022/05/31 04:53:33;;;;;;;8.23;4.65;;;;;;;;;;5101479;28;20071;-82
2022/05/31 04:56:00;;;;;;;8.55;5.35;;;;;;;;;;5096410;28;20082;-80
2022/05/31 04:58:27;;;;;;;8.65;5.63;;;;;;;;;;5091757;28;20612;-79
2022/05/31 05:00:53;;;;;;;8.35;4.93;;;;;;;;;;5098334;28;20056;-81
2022/05/31 05:03:19;;;;;;;8.48;5.13;;;;;;;;;;5092474;28;20056;-81
2022/05/31 05:05:46;;;;;;;9.43;5.22;;;;;;;;;;5096847;28;20091;-80
2022/05/31 05:08:12;;;;;;;10.85;5.45;;;;;;;;;;5090521;28;20860;-81
2022/05/31 05:10:43;;;;;;;8.10;4.80;;;;;;;;;;5091022;28;20052;-80
2022/05/31 05:13:10;;;;;;;7.57;5.00;;;;;;;;;;5088984;28;20143;-79
2022/05/31 05:15:40;;;;;;;8.43;5.15;;;;;;;;;;5089154;28;20131;-80
2022/05/31 05:18:06;;;;;;;12.32;5.50;;;;;;;;;;5091511;27;20055;-78
2022/05/31 05:20:34;;;;;;;9.07;5.53;;;;;;;;;;5092075;28;20060;-79
2022/05/31 05:23:02;;;;;;;9.35;5.13;;;;;;;;;;5094682;28;20103;-80
2022/05/31 05:25:29;;;;;;;10.88;5.30;;;;;;;;;;5108768;28;20133;-80
2022/05/31 05:27:55;;;;;;;13.00;5.50;;;;;;;;;;5099829;28;20072;-80
2022/05/31 05:30:39;;;;;;;11.93;5.82;;;;;;;;;;5105636;28;20070;-79
2022/05/31 05:33:07;;;;;;;10.43;5.57;;;;;;;;;;5098812;28;20110;-79
2022/05/31 05:35:33;;;;;;;10.57;6.22;;;;;;;;;;5102893;27;20049;-80
2022/05/31 05:38:01;;;;;;;17.42;6.20;;;;;;;;;;5090485;28;20037;-79
2022/05/31 05:40:27;;;;;;;10.90;5.55;;;;;;;;;;5096870;28;20082;-80
2022/05/31 05:42:53;;;;;;;14.77;6.47;;;;;;;;;;5095849;27;20430;-80
2022/05/31 05:45:20;;;;;;;11.68;5.88;;;;;;;;;;5090678;28;20040;-80
2022/05/31 05:47:46;;;;;;;10.23;5.60;;;;;;;;;;5108751;28;20066;-80
2022/05/31 05:50:12;;;;;;;12.98;5.80;;;;;;;;;;5112177;28;20056;-81
2022/05/31 05:52:39;;;;;;;10.07;6.22;;;;;;;;;;5108185;28;20044;-80
2022/05/31 05:55:06;;;;;;;13.57;5.68;;;;;;;;;;5102728;27;20065;-79
2022/05/31 05:57:32;;;;;;;13.25;6.03;;;;;;;;;;5105932;28;20060;-81
2022/05/31 05:59:59;;;;;;;12.18;6.45;;;;;;;;;;5113996;27;20131;-80
2022/05/31 06:02:29;;;;;;;9.73;5.60;;;;;;;;;;5107651;28;20052;-81
2022/05/31 06:05:24;;;;;;;8.32;5.68;;;;;;;;;;5119140;28;20078;-81
2022/05/31 06:07:55;;;;;;;12.20;5.55;;;;;;;;;;5117958;28;20104;-81
2022/05/31 06:10:24;;;;;;;9.05;5.80;;;;;;;;;;5110677;28;20147;-81
2022/05/31 06:12:55;;;;;;;11.80;5.95;;;;;;;;;;5099402;28;20063;-79
2022/05/31 06:15:25;;;;;;;11.02;6.00;;;;;;;;;;5098283;27;20334;-80
2022/05/31 06:17:53;;;;;;;11.60;6.50;;;;;;;;;;5096454;27;20155;-79
2022/05/31 06:20:20;;;;;;;14.73;6.68;;;;;;;;;;5098372;27;20062;-80
2022/05/31 06:22:46;;;;;;;11.30;6.97;;;;;;;;;;5092590;28;20524;-79
2022/05/31 06:25:14;;;;;;;14.85;6.25;;;;;;;;;;5088380;27;20090;-80
2022/05/31 06:27:40;;;;;;;10.90;6.55;;;;;;;;;;5094833;28;20139;-79
2022/05/31 06:30:07;;;;;;;13.27;6.35;;;;;;;;;;5099490;28;20055;-79
2022/05/31 06:32:33;;;;;;;13.93;6.35;;;;;;;;;;5091119;27;20056;-79
2022/05/31 06:35:03;;;;;;;13.52;6.68;;;;;;;;;;5095301;28;20859;-79
2022/05/31 06:37:30;;;;;;;12.32;6.60;;;;;;;;;;5096271;28;20539;-78
2022/05/31 06:39:56;;;;;;;17.60;7.28;;;;;;;;;;5094674;27;20044;-77
2022/05/31 06:42:23;;;;;;;11.05;6.80;;;;;;;;;;5098998;27;20063;-80
2022/05/31 06:44:49;;;;;;;12.48;7.32;;;;;;;;;;5090315;28;20143;-78
2022/05/31 06:47:15;;;;;;;12.82;7.53;;;;;;;;;;5093153;28;20127;-79
2022/05/31 06:49:42;;;;;;;14.82;7.53;;;;;;;;;;5092311;28;20957;-79
2022/05/31 06:57:42;;;;;;;11.20;7.10;;;;;;;;;;5096483;28;20118;-81
2022/05/31 07:00:10;;;;;;;12.32;7.03;;;;;;;;;;5096273;27;20056;-77
2022/05/31 07:02:37;;;;;;;13.82;7.20;;;;;;;;;;5092527;27;20056;-78
2022/05/31 07:05:04;;;;;;;14.52;7.38;;;;;;;;;;5092711;28;20048;-78
2022/05/31 07:07:31;;;;;;;12.80;7.45;;;;;;;;;;5083868;28;20103;-80
2022/05/31 07:09:57;;;;;;;17.05;7.35;;;;;;;;;;5079935;28;20059;-79
2022/05/31 07:12:24;;;;;;;10.93;6.40;;;;;;;;;;5090826;28;20058;-79
2022/05/31 07:14:50;;;;;;;10.55;6.50;;;;;;;;;;5094564;28;20067;-79
2022/05/31 07:17:16;;;;;;;12.27;6.65;;;;;;;;;;5096252;28;20057;-83
2022/05/31 07:19:43;;;;;;;11.68;6.13;;;;;;;;;;5082789;28;20132;-80
2022/05/31 07:22:29;;;;;;;10.55;6.47;;;;;;;;;;5096698;27;20056;-78
2022/05/31 07:24:56;;;;;;;11.57;6.40;;;;;;;;;;5088823;28;20048;-78
2022/05/31 07:27:22;;;;;;;12.88;6.20;;;;;;;;;;5086016;28;20058;-78
2022/05/31 07:29:48;;;;;;;12.65;6.13;;;;;;;;;;5102541;28;20131;-80
2022/05/31 07:32:14;;;;;;;11.25;6.60;;;;;;;;;;5097609;27;20143;-79
2022/05/31 07:35:01;;;;;;;9.68;6.18;;;;;;;;;;5103074;28;20063;-79
2022/05/31 07:37:27;;;;;;;13.88;6.18;;;;;;;;;;5109423;28;20059;-82
2022/05/31 07:39:54;;;;;;;11.65;6.00;;;;;;;;;;5101943;28;20037;-83
2022/05/31 07:42:20;;;;;;;11.43;6.18;;;;;;;;;;5086485;28;20521;-80
2022/05/31 07:44:46;;;;;;;11.52;5.88;;;;;;;;;;5086894;28;20511;-79
2022/05/31 07:47:13;;;;;;;9.73;6.25;;;;;;;;;;5092843;28;20150;-81
2022/05/31 07:49:39;;;;;;;11.93;6.60;;;;;;;;;;5091921;28;20058;-79
2022/05/31 07:52:06;;;;;;;10.73;6.65;;;;;;;;;;5102397;28;20102;-79
2022/05/31 07:54:32;;;;;;;11.10;6.97;;;;;;;;;;5087058;28;20138;-79
2022/05/31 07:56:59;;;;;;;9.13;6.28;;;;;;;;;;5102650;28;20062;-79
2022/05/31 07:59:27;;;;;;;11.98;6.32;;;;;;;;;;5104496;27;20059;-79
2022/05/31 08:01:53;;;;;;;12.10;5.90;;;;;;;;;;5104923;28;20056;-78
2022/05/31 08:04:21;;;;;;;11.35;6.13;;;;;;;;;;5104197;28;20147;-83
2022/05/31 08:06:47;;;;;;;12.75;6.38;;;;;;;;;;5097744;28;20040;-82
2022/05/31 08:09:14;;;;;;;14.45;6.22;;;;;;;;;;5082641;28;20056;-79
2022/05/31 08:11:40;;;;;;;9.75;5.65;;;;;;;;;;5101932;28;20127;-79
2022/05/31 08:14:07;;;;;;;10.43;5.00;;;;;;;;;;5094752;28;20056;-78
2022/05/31 08:16:34;;;;;;;8.10;3.80;;;;;;;;;;5097772;28;20062;-79
2022/05/31 08:19:02;;;;;;;7.93;4.30;;;;;;;;;;5090236;28;20537;-78
2022/05/31 08:21:30;;;;;;;6.80;3.30;;;;;;;;;;5082178;28;20059;-78
2022/05/31 08:23:58;;;;;;;6.22;3.20;;;;;;;;;;5096048;28;20060;-78
2022/05/31 08:26:25;;;;;;;9.75;3.97;;;;;;;;;;5102620;28;20141;-78
2022/05/31 08:28:52;;;;;;;8.98;3.70;;;;;;;;;;5102583;28;20062;-78
2022/05/31 08:31:22;;;;;;;5.85;3.30;;;;;;;;;;5100875;27;20225;-78
2022/05/31 08:33:49;;;;;;;7.15;3.63;;;;;;;;;;5103282;27;20052;-79
2022/05/31 08:36:15;;;;;;;13.60;3.40;;;;;;;;;;5093513;28;20155;-79
2022/05/31 08:38:42;;;;;;;10.80;3.63;;;;;;;;;;5082929;28;20527;-79
2022/05/31 08:41:24;;;;;;;6.35;3.17;;;;;;;;;;5085786;28;20204;-78
2022/05/31 08:43:54;;;;;;;7.88;3.75;;;;;;;;;;5084227;28;20438;-77
2022/05/31 08:46:23;;;;;;;8.88;4.40;;;;;;;;;;5098642;28;20045;-79
2022/05/31 08:48:58;;;;;;;7.07;4.78;;;;;;;;;;5117225;28;20935;-81
2022/05/31 08:57:38;;;;;;;11.10;4.55;;;;;;;;;;5108342;28;20049;-82
2022/05/31 09:00:33;;;;;;;7.80;5.03;;;;;;;;;;5091944;28;20361;-81
2022/05/31 09:03:03;;;;;;;7.65;4.80;;;;;;;;;;5103052;28;20068;-83
2022/05/31 09:05:31;;;;;;;8.87;5.00;;;;;;;;;;5102803;28;20048;-83
2022/05/31 09:08:05;;;;;;;8.43;4.82;;;;;;;;;;5097469;28;20055;-83
2022/05/31 09:10:31;;;;;;;11.73;5.20;;;;;;;;;;5116729;28;20152;-79
2022/05/31 09:13:16;;;;;;;8.73;4.82;;;;;;;;;;5110499;28;20119;-81
2022/05/31 09:16:07;;;;;;;8.63;5.28;;;;;;;;;;5091530;28;20052;-79
2022/05/31 09:18:35;;;;;;;7.45;4.30;;;;;;;;;;5098348;28;20055;-78
2022/05/31 09:21:04;;;;;;;9.98;4.40;;;;;;;;;;5104170;27;20100;-78
2022/05/31 09:23:33;;;;;;;11.80;5.53;;;;;;;;;;5118135;28;20060;-79
2022/05/31 09:26:12;;;;;;;9.65;5.85;;;;;;;;;;5110953;27;20527;-82
2022/05/31 09:28:42;;;;;;;8.93;4.90;;;;;;;;;;5111199;28;20040;-82
2022/05/31 09:31:28;;;;;;;9.18;4.60;;;;;;;;;;5112260;28;20071;-87
2022/05/31 09:34:16;;;;;;;9.02;4.32;;;;;;;;;;5091899;28;20063;-86
2022/05/31 09:36:47;;;;;;;7.10;4.30;;;;;;;;;;5059945;28;20139;-83
2022/05/31 09:39:14;;;;;;;9.15;4.88;;;;;;;;;;5108295;28;20052;-87
2022/05/31 09:42:13;;;;;;;10.55;4.63;;;;;;;;;;5114207;28;20096;-89
2022/05/31 09:44:44;;;;;;;6.38;4.13;;;;;;;;;;5059137;28;20080;-82
2022/05/31 09:47:18;;;;;;;9.32;4.38;;;;;;;;;;5112169;28;20959;-85
2022/05/31 09:49:46;;;;;;;7.55;3.72;;;;;;;;;;5108627;28;20056;-85
2022/05/31 09:52:29;;;;;;;11.77;4.90;;;;;;;;;;5109571;28;20123;-85
2022/05/31 09:57:52;;;;;;;9.32;4.82;;;;;;;;;;5113274;28;20560;-84
2022/05/31 10:00:20;;;;;;;7.93;3.67;;;;;;;;;;5117634;28;20103;-84
2022/05/31 10:03:03;;;;;;;7.20;3.50;;;;;;;;;;5113001;28;20100;-84
2022/05/31 10:05:29;;;;;;;6.13;2.50;;;;;;;;;;5104840;28;20048;-84
2022/05/31 10:07:55;;;;;;;6.57;2.72;;;;;;;;;;5107697;28;20053;-84
2022/05/31 10:10:32;;;;;;;6.72;2.60;;;;;;;;;;5115627;28;20996;-84
2022/05/31 10:13:04;;;;;;;6.97;2.80;;;;;;;;;;5108795;27;20044;-84
2022/05/31 10:15:45;;;;;;;5.35;2.33;;;;;;;;;;5118935;28;20052;-83
2022/05/31 10:18:31;;;;;;;6.40;3.10;;;;;;;;;;5122039;28;20100;-83
2022/05/31 10:20:59;;;;;;;8.45;3.33;;;;;;;;;;5104466;28;20068;-83
2022/05/31 10:23:31;;;;;;;7.60;3.58;;;;;;;;;;5101350;28;20037;-83
2022/05/31 10:25:58;;;;;;;7.00;3.13;;;;;;;;;;5118369;27;20053;-83
2022/05/31 10:28:40;;;;;;;6.47;3.00;;;;;;;;;;5108785;28;20044;-83
2022/05/31 10:31:14;;;;;;;8.18;2.80;;;;;;;;;;5106528;28;20301;-83
2022/05/31 10:33:48;;;;;;;6.55;2.72;;;;;;;;;;5107162;28;20067;-83
2022/05/31 10:36:19;;;;;;;6.43;2.88;;;;;;;;;;5111060;28;20064;-82
2022/05/31 10:38:46;;;;;;;6.68;3.42;;;;;;;;;;5113110;28;20063;-83
2022/05/31 10:41:32;;;;;;;7.65;3.25;;;;;;;;;;5107577;27;20052;-81
2022/05/31 10:44:38;;;;;;;6.00;2.80;;;;;;;;;;5100385;28;20943;-82
2022/05/31 10:47:10;;;;;;;6.57;3.47;;;;;;;;;;5091193;28;20043;-82
2022/05/31 10:49:37;;;;;;;8.93;3.20;;;;;;;;;;5106803;28;20142;-82
2022/05/31 10:52:19;;;;;;;9.95;4.18;;;;;;;;;;5118098;27;20095;-81
2022/05/31 10:55:13;;;;;;;8.93;4.43;;;;;;;;;;5107054;28;20031;-82
2022/05/31 10:57:42;;;;;;;8.18;4.25;;;;;;;;;;5107274;27;20142;-81
2022/05/31 11:00:15;;;;;;;9.07;4.10;;;;;;;;;;5109316;28;20058;-81
2022/05/31 11:03:01;;;;;;;8.77;4.13;;;;;;;;;;5116287;28;20136;-82
2022/05/31 11:05:46;;;;;;;7.10;3.72;;;;;;;;;;5099883;28;20043;-81
2022/05/31 11:11:30;;;;;;;6.95;4.03;;;;;;;;;;5109372;28;20147;-82
2022/05/31 11:14:08;;;;;;;7.35;3.55;;;;;;;;;;5103118;28;20032;-83
2022/05/31 11:16:34;;;;;;;8.07;3.30;;;;;;;;;;5111296;28;20074;-82
2022/05/31 11:19:20;;;;;;;9.20;3.88;;;;;;;;;;5106606;28;20103;-82
2022/05/31 11:21:54;;;;;;;7.65;3.72;;;;;;;;;;5099255;28;20037;-82
2022/05/31 11:24:23;;;;;;;9.88;3.72;;;;;;;;;;5112500;28;20083;-83
2022/05/31 11:27:03;;;;;;;9.07;2.97;;;;;;;;;;5094180;28;20055;-82
2022/05/31 11:29:53;;;;;;;8.35;3.13;;;;;;;;;;5099814;28;20075;-81
2022/05/31 11:32:34;;;;;;;5.75;3.30;;;;;;;;;;5103808;28;20508;-80
2022/05/31 11:35:00;;;;;;;5.75;3.20;;;;;;;;;;5106547;28;20048;-80
2022/05/31 11:38:03;;;;;;;7.18;3.13;;;;;;;;;;5106618;28;20951;-78
2022/05/31 11:40:30;;;;;;;5.97;2.60;;;;;;;;;;5028996;28;20919;-80
2022/05/31 11:43:16;;;;;;;4.68;2.42;;;;;;;;;;5085187;28;20047;-81
2022/05/31 11:46:01;;;;;;;7.35;2.92;;;;;;;;;;5101604;28;20043;-81
2022/05/31 11:48:40;;;;;;;6.05;2.83;;;;;;;;;;5110820;28;20076;-81
2022/05/31 11:51:07;;;;;;;5.95;3.50;;;;;;;;;;5104674;28;20388;-80
2022/05/31 11:53:52;;;;;;;9.32;3.45;;;;;;;;;;5096249;28;20118;-80
2022/05/31 11:56:28;;;;;;;8.38;3.28;;;;;;;;;;5102180;28;20571;-80
2022/05/31 11:59:00;;;;;;;7.32;3.40;;;;;;;;;;5103666;28;20116;-81
2022/05/31 12:01:32;;;;;;;7.63;3.22;;;;;;;;;;5095645;28;20108;-81
2022/05/31 12:04:25;;;;;;;8.48;3.45;;;;;;;;;;5098730;28;20075;-81
2022/05/31 12:06:54;;;;;;;5.68;3.10;;;;;;;;;;5096962;28;20075;-81
2022/05/31 12:09:45;;;;;;;7.75;3.15;;;;;;;;;;5113271;28;20115;-81
2022/05/31 12:12:30;;;;;;;6.28;3.22;;;;;;;;;;5104453;28;20161;-81
2022/05/31 12:15:23;;;;;;;5.65;2.83;;;;;;;;;;5101669;27;20067;-81
2022/05/31 12:17:53;;;;;;;5.97;2.95;;;;;;;;;;5105214;28;20056;-79
2022/05/31 12:20:19;;;;;;;;;;;;;;;;;;5112925;27;20044;-79
2022/05/31 12:22:51;;;;;;;6.85;2.67;;;;;;;;;;5102571;28;46241;-80
2022/05/31 12:25:23;;;;;;;5.60;2.50;;;;;;;;;;5109390;28;20476;-79
2022/05/31 12:27:56;;;;;;;6.03;2.65;;;;;;;;;;5097809;28;20070;-79
2022/05/31 12:30:31;;;;;;;6.07;2.60;;;;;;;;;;5093760;28;20526;-79
2022/05/31 12:32:58;;;;;;;8.23;2.70;;;;;;;;;;5094123;28;20947;-82
2022/05/31 12:35:31;;;;;;;5.65;2.45;;;;;;;;;;5106191;28;20096;-82
2022/05/31 12:38:00;;;;;;;7.25;2.92;;;;;;;;;;5095650;28;20087;-82
2022/05/31 12:40:32;;;;;;;7.37;2.83;;;;;;;;;;5103640;28;20058;-82
2022/05/31 12:43:00;;;;;;;7.40;3.38;;;;;;;;;;5102360;28;20083;-82
2022/05/31 12:45:32;;;;;;;5.63;2.67;;;;;;;;;;5095916;28;20514;-82
2022/05/31 12:48:14;;;;;;;5.57;3.00;;;;;;;;;;5098129;28;20056;-82
2022/05/31 12:51:07;;;;;;;5.88;2.75;;;;;;;;;;5100307;28;20052;-82
2022/05/31 12:53:37;;;;;;;5.22;2.90;;;;;;;;;;5085819;28;20088;-82
2022/05/31 12:56:04;;;;;;;7.38;3.17;;;;;;;;;;5093344;28;20102;-82
2022/05/31 12:58:36;;;;;;;6.65;3.42;;;;;;;;;;5095273;28;20063;-82
2022/05/31 13:01:07;;;;;;;5.78;2.83;;;;;;;;;;5104885;28;20135;-82
2022/05/31 13:03:33;;;;;;;6.75;2.50;;;;;;;;;;5102849;27;20572;-82
2022/05/31 13:06:01;;;;;;;8.70;3.08;;;;;;;;;;5105424;28;20142;-81
2022/05/31 13:08:46;;;;;;;4.25;2.40;;;;;;;;;;5102592;28;20491;-82
2022/05/31 13:19:41;;;;;;;7.53;3.00;;;;;;;;;;5093323;28;20052;-82
2022/05/31 13:22:16;;;;;;;8.48;3.42;;;;;;;;;;5093784;28;20052;-82
2022/05/31 13:25:02;;;;;;;6.43;3.33;;;;;;;;;;5095708;28;20150;-82
2022/05/31 13:27:30;;;;;;;6.72;3.58;;;;;;;;;;5089691;28;20048;-82
2022/05/31 13:30:22;;;;;;;7.30;4.07;;;;;;;;;;5090345;28;20585;-83
2022/05/31 13:32:50;;;;;;;9.10;4.38;;;;;;;;;;5085887;28;20070;-82
2022/05/31 13:35:24;;;;;;;8.15;5.05;;;;;;;;;;5087665;27;20048;-82
2022/05/31 13:37:53;;;;;;;7.32;4.65;;;;;;;;;;5100419;28;21055;-82
2022/05/31 13:40:21;;;;;;;9.23;4.70;;;;;;;;;;5091090;28;20063;-81
2022/05/31 13:42:48;;;;;;;9.60;4.40;;;;;;;;;;5093817;28;20536;-81
2022/05/31 13:45:17;;;;;;;7.88;4.55;;;;;;;;;;5105689;28;20048;-81
2022/05/31 13:47:55;;;;;;;10.07;4.87;;;;;;;;;;5103980;28;20103;-82
2022/05/31 13:50:23;;;;;;;8.43;4.82;;;;;;;;;;5094728;28;20060;-81
2022/05/31 13:52:51;;;;;;;8.10;4.40;;;;;;;;;;5099768;28;20152;-81
2022/05/31 13:55:27;;;;;;;14.48;6.32;;;;;;;;;;5096747;28;20143;-80
2022/05/31 13:57:55;;;;;;;14.82;5.25;;;;;;;;;;5098860;28;20135;-80
2022/05/31 14:00:31;;;;;;;11.30;5.40;;;;;;;;;;5098854;27;20138;-79
2022/05/31 14:03:06;;;;;;;12.85;4.97;;;;;;;;;;5093857;28;20059;-79
2022/05/31 14:05:39;;;;;;;8.48;5.22;;;;;;;;;;5093542;27;20060;-78
2022/05/31 14:08:09;;;;;;;11.05;5.15;;;;;;;;;;5097392;28;20048;-79
2022/05/31 14:10:44;;;;;;;10.25;6.03;;;;;;;;;;5106747;28;20946;-79
2022/05/31 14:13:18;;;;;;;9.90;5.50;;;;;;;;;;5097122;28;20052;-79
2022/05/31 14:15:45;;;;;;;8.63;6.25;;;;;;;;;;5089608;27;20052;-79
2022/05/31 14:18:13;;;;;;;11.93;6.65;;;;;;;;;;5097101;28;20136;-78
2022/05/31 14:20:41;;;;;;;13.43;6.05;;;;;;;;;;5104221;28;20135;-78
2022/05/31 14:23:21;;;;;;;10.65;5.95;;;;;;;;;;5098012;28;20506;-78
2022/05/31 14:25:51;;;;;;;12.73;5.78;;;;;;;;;;5091019;28;20096;-78
2022/05/31 14:28:18;;;;;;;7.97;4.80;;;;;;;;;;5105507;28;20100;-76
2022/05/31 14:30:54;;;;;;;9.52;4.60;;;;;;;;;;5090768;28;23222;-76
2022/05/31 14:33:21;;;;;;;10.13;5.28;;;;;;;;;;5092731;28;20151;-78
2022/05/31 14:35:50;;;;;;;8.57;5.18;;;;;;;;;;5092986;28;20048;-78
2022/05/31 14:38:44;;;;;;;12.40;5.10;;;;;;;;;;5095673;28;20054;-78
2022/05/31 14:41:15;;;;;;;8.60;5.18;;;;;;;;;;5087717;28;20143;-77
2022/05/31 14:43:59;;;;;;;7.50;5.03;;;;;;;;;;5092722;28;20887;-78
2022/05/31 14:46:27;;;;;;;11.82;5.18;;;;;;;;;;5096603;28;20118;-77
2022/05/31 14:49:03;;;;;;;10.60;5.63;;;;;;;;;;5093811;28;20104;-78
2022/05/31 14:51:31;;;;;;;10.20;6.35;;;;;;;;;;5103655;27;20138;-78
2022/05/31 14:53:58;;;;;;;10.60;5.70;;;;;;;;;;5095773;27;20049;-78
2022/05/31 14:56:32;;;;;;;9.93;6.20;;;;;;;;;;5089015;28;20063;-78
2022/05/31 14:59:02;;;;;;;9.45;6.80;;;;;;;;;;5088519;28;20100;-79
2022/05/31 15:01:29;;;;;;;;;;;;;;;;;;5099476;28;20056;-78
2022/05/31 15:04:04;;;;;;;10.43;6.28;;;;;;;;;;5098599;28;48050;-79
2022/05/31 15:06:35;;;;;;;10.10;6.47;;;;;;;;;;5096961;28;20045;-79
2022/05/31 15:09:28;;;;;;;11.02;6.10;;;;;;;;;;5091305;28;20048;-79
2022/05/31 15:20:13;;;;;;;11.07;7.13;;;;;;;;;;5098253;28;20058;-78
2022/05/31 15:22:40;;;;;;;11.32;6.93;;;;;;;;;;5095240;28;20055;-78
2022/05/31 15:25:07;;;;;;;9.05;6.47;;;;;;;;;;5096650;27;20070;-79
2022/05/31 15:27:35;;;;;;;11.48;7.28;;;;;;;;;;5090352;28;20056;-79
2022/05/31 15:30:03;;;;;;;9.40;6.00;;;;;;;;;;5084816;28;20135;-79
2022/05/31 15:32:29;;;;;;;9.02;6.55;;;;;;;;;;5101162;27;20515;-79
2022/05/31 15:34:56;;;;;;;10.73;6.22;;;;;;;;;;5090944;27;20106;-79
2022/05/31 15:37:25;;;;;;;9.70;5.78;;;;;;;;;;5081627;28;20087;-78